Terminal Aerodrome Forecast
Issued by NWS

Home | Current Version | Previous Version | Text Only | Print | Product List | Glossary On
Versions: 1 2 3 4 5 6 7 8 9 10 11 12 13 14 15 16 17 18 19 20 21 22 23 24 25 26 27 28 29 30 31 32 33 34 35 36 37
000
FTUS45 KGJT 282334
TAFVEL
TAF
KVEL 282334Z 2900/2924 03004KT P6SM VCSH BKN045
     FM290200 31005KT P6SM VCSH BKN040
     FM290800 02003KT P6SM VCSH SCT030 OVC050
     FM291200 02003KT 5SM -SN BR SCT020 OVC040
     FM291800 05010KT 5SM -SN BR SCT020 OVC040=

USA.gov is the U.S. government's official web portal to all federal, state and local government web resources and services.